2014 Snowdonia Slateman Kinetica QuarryMan

1025 results found. Perform another search | Print these results

Race Number First Name Surname Gender Gender Position Category Category Position Club Chip Time Chip Position Tweet Share
18 Suzie Richards Female 1 F17-39 1 Leeds and Bradford Triathlon C 00:10:52 38
333 Natalie Seymour Female 2 F17-39 2 Endurance Sports Coaching 00:11:02 46
11 Jane Hansom Female 3 F40-49 1 00:11:23 61
15 Dorothy Liviabella Female 4 F40-49 2 00:11:53 97
829 Anita Howe Female 5 F40-49 3 Coventry Triathletes 00:11:55 104
1210 Team CJR Female 6 F-RELAY 1 00:12:06 116
1105 Ruth Thom Female 7 F17-39 3 Salisbury Tri Club 00:12:10 124
351 Kate Morris Female 8 F40-49 4 Racing TNT 00:12:11 125
343 Julie Webb Female 9 F40-49 5 Chester tri 00:12:13 131
357 Helen Teasdale Female 10 F40-49 6 00:12:17 136
337 Helen Talbot Female 11 F17-39 4 Nuneaton Triathlon Club 00:12:22 143
356 Lindsay Judge Female 12 F17-39 5 00:12:28 156
340 Natasha Geere Female 13 F40-49 7 Leeds and Bradford 00:12:29 157
334 Laura Pankhurst Female 14 F17-39 6 BAD tri 00:12:35 172
832 Katy Vose Female 15 F17-39 7 00:12:49 201
349 Claire Hebblethwaite Female 16 F17-39 8 00:12:57 226
1199 Nicky Davies Female 17 F50-59 1 Borrowdale 00:13:02 241
1197 Melissa Dowell Female 18 F40-49 8 Born2Tri 00:13:06 248
347 Charlotte Jenkinson Female 19 F17-39 9 Sheffield Triathlon Club 00:13:08 252
883 Kathryn Watson Female 20 F40-49 9 00:13:30 301
16 Charlotte Jelleyman Female 21 F17-39 10 Leicester Triathlon Club 00:13:31 304
611 Lisa Hurley Female 22 F17-39 11 Malvern Triathlon Club 00:13:36 313
348 Nicola Goodwin Female 23 F40-49 10 Hereford Triathlon Club 00:13:37 318
1154 Karen Driver Female 24 F40-49 11 00:13:46 329
332 Sarah Rose Female 25 F17-39 12 Manchester triathlon club 00:13:55 346
339 Claire Sutcliffe Female 26 F40-49 12 Chester Triathlon Club 00:14:01 356
335 Nicky Russell Female 27 F40-49 13 Bad tri 00:14:06 362
342 Cat Wynne Female 28 F40-49 14 Absolute Tri Coaching 00:14:19 387
1195 Margaret Duncan Female 29 F40-49 15 Racing TNT 00:14:20 390
838 Dawn Clark Female 30 F17-39 13 Spa Striders 00:14:25 406
652 Helen Morgan Female 31 F17-39 14 00:14:33 417
820 Kath Smith Female 32 F50-59 2 Carlisle Tri Club 00:14:34 420
614 Rita Smith Female 33 F17-39 15 BADTri 00:14:34 423
924 Lauren Hassett Female 34 F17-39 16 00:14:35 424
821 Sarah Harrison Female 35 F40-49 16 00:14:36 426
14 Kylie Mansfield Female 36 F17-39 17 Hereford Triathlon Club 00:14:40 437
1017 Jo Johnson-Taylor Female 37 F17-39 18 00:14:51 461
655 Annie Williams Female 38 F50-59 3 00:14:55 466
609 Joanne Green Female 39 F17-39 19 00:14:57 471
1193 Hannah Mandel Female 40 F17-39 20 00:15:01 481
1020 Maggie Collingborn Female 41 F50-59 4 00:15:05 493
919 Sarah Greaves Female 42 F50-59 5 OOTri 00:15:08 495
1196 Caroline Cresswell Female 43 F40-49 17 TRiKS 00:15:17 517
1156 Valerie Anne Edwards Female 44 F60-69 1 00:15:21 527
823 Louise Moore Female 45 F40-49 18 SCARAB TRI 00:15:22 528
1070 Suzy Cumming Female 46 F17-39 21 00:15:28 539
1157 Sarah Ivory Female 47 F17-39 22 Born2Tri 00:15:30 541
882 Mhairi Cooper Female 48 F17-39 23 City of Chester Triathlon club 00:15:30 542
839 Karen Soley Female 49 F40-49 19 Llanberis Tri 00:15:35 551
1192 Maddy Cornthwaite Female 50 F17-39 24 00:15:36 554
841 Lisel Walker Female 51 F40-49 20 00:15:36 555
1151 Fenella Higgins Female 52 F40-49 21 City of Chester Triathlon Club 00:15:36 556
880 Darshana Bhattacharjee Female 53 F17-39 25 00:15:42 571
830 Lois Mccartan Female 54 F17-39 26 RacingTNT 00:15:45 578
359 Ellie Tighe Female 55 F17-39 27 00:15:49 589
1019 Lucie Wainwright Female 56 F40-49 22 RacingTNT Triathlon team 00:15:50 592
819 Megan Hughes Female 57 F17-39 28 00:15:51 594
649 Charlotte Mountain Female 58 F40-49 23 SYTri 00:15:55 605
606 Gaynor Evans Female 59 F50-59 6 Manx Tri 00:15:56 607
879 Frances Jones Female 60 F50-59 7 SYTri Shrewsbury Triathlon 00:15:59 613
826 Helen Elliott Female 61 F17-39 29 00:16:01 619
1013 Verity Wolstencroft Female 62 F17-39 30 00:16:03 623
1191 Kathryn Gray Female 63 F17-39 31 00:16:03 624
1099 Susan Standford Female 64 F50-59 8 north devon tri 00:16:04 625
1046 Stell Farrar Female 65 F50-59 9 00:16:04 626
1152 Jill Bunyan Female 66 F40-49 24 Manx Tri Club 00:16:07 633
354 Katie Ogden Female 67 F17-39 32 00:16:08 635
837 Kathryn Hanson Female 68 F40-49 25 Leighton Buzzard Tri Club 00:16:09 638
355 Harriet Lowe Female 69 F17-39 33 00:16:10 640
1158 Rebecca Verrill Female 70 F17-39 34 00:16:12 645
834 Louise Shannon Female 71 F17-39 35 00:16:13 646
653 Marie Perrin Female 72 F40-49 26 00:16:14 652
605 Joanne Edwards Female 73 F50-59 10 Knutsford Tri Club 00:16:28 684
1023 Eva Youngman Female 74 F17-39 36 00:16:37 701
613 Kathy Jones Female 75 F17-39 37 SY Tri 00:16:37 702
612 Ellen Cameron Female 76 F17-39 38 Salisbury Tri Club 00:16:41 707
827 Jennifer Wills Female 77 F17-39 39 Lomond Masters 00:16:45 715
1050 Gemma Bell Female 78 F17-39 40 00:16:48 720
1039 Sue Ellis Female 79 F50-59 11 City of Chester Tri 00:16:53 726
604 Anna Irwin Female 80 F17-39 41 00:16:54 727
610 Julie Kitchen Female 81 F40-49 27 Lincoln Tri 00:16:56 730
881 Lynn Stephens Female 82 F40-49 28 00:16:57 736
1084 Kathy Frankland Female 83 F40-49 29 City of Chester Triathlon Club 00:16:59 742
650 Victoria Jones Female 84 F17-39 42 Taff Ely Tri 00:17:09 756
887 Allison Donnelly Female 85 F40-49 30 PADARN TRI 00:17:11 758
1016 Nina Tomlin Female 86 F17-39 43 GRC Triathlon 00:17:11 759
822 Karen Mcgibbon Female 87 F50-59 12 00:17:12 760
831 Beverley Noble Female 88 F40-49 31 00:17:14 765
353 Nicola Sommers Female 89 F17-39 44 00:17:21 774
937 Tammy Holdsworth Female 90 F40-49 32 00:17:21 776
345 Louise Cooper Female 91 F17-39 45 Cherwell Tri Tream 00:17:23 779
1040 Ros Edmonds Female 92 F50-59 13 Taff Ely Triathlon Club 00:17:25 781
336 Louise Bartlett Female 93 F17-39 46 Hereford Triathlon Club 00:17:26 784
1219 Team TRIAWD Y BUARTH! Female 94 F-RELAY 2 00:17:37 799
341 Amanda Dawson Female 95 F40-49 33 Tewkesbury Tri 00:17:39 801
1028 Karen Richards Female 96 F40-49 34 Black Country Triathletes 00:17:47 807
833 Sarah Beale Female 97 F17-39 47 00:17:49 808
70 Robyn Cloake Female 98 F17-39 48 Bangor University 00:17:54 820
464 Tracey Sharratt Female 99 F40-49 35 Five Frogs Triathlon 00:17:58 827
1018 Ailsa Pagan Female 100 F40-49 36 Racing TNT 00:18:00 829